ミラノ/マルペンサ の空港の天気 - METARとTAF

ミラノ・マルペンサ国際空港 ( LIMC / MXP ) - イタリア ミラノ
飛行場実況気象(Metar)
観測時間09/23 00:50 CEST (09/22 22:50 UTC)
風向・風速北北東 2m/s
視程10km以上
天気現象
なし
気温16℃
湿度88%
気圧1023hPa
METARLIMC 222250Z 03004KT CAVOK 16/14 Q1023 NOSIG
過去の天気等 Google飛行場航空写真 Wunderground天気予報

過去48時間のMETAR

飛行場予報(TAF)
発表時間: 9/22 19:00 CEST (9/22 17:00 UTC)
予報対象時間: 22日20時 CEST ~ 24日2時 CEST
風向・風速不定 3m/s
視程10km以上
少しの雲 雲底高度 1220m
23日2時 CEST ~ 23日9時 CEST に 確率 30% で一時的に
視程3000m
天気現象もや
TAF LIMC 221700Z 2218/2324 VRB05KT 9999 FEW040
PROB30 TEMPO 2300/2307 3000 BR